createdAt,value
2019-03-10T00:00:37.224Z,9.30
2019-03-10T00:03:08.416Z,9.20
2019-03-10T00:05:39.690Z,9.30
2019-03-10T00:08:11.008Z,9.30
2019-03-10T00:10:42.195Z,9.40
2019-03-10T00:13:14.162Z,9.30
2019-03-10T00:15:45.430Z,9.20
2019-03-10T00:18:17.485Z,9.10
2019-03-10T00:20:48.797Z,9.00
2019-03-10T00:23:20.054Z,9.10
2019-03-10T00:25:51.397Z,9.10
2019-03-10T00:28:22.703Z,9.10
2019-03-10T00:30:53.898Z,9.10
2019-03-10T00:33:25.851Z,9.10
2019-03-10T00:35:57.236Z,9.00
2019-03-10T00:38:35.097Z,9.00
2019-03-10T00:42:07.102Z,8.90
2019-03-10T00:45:57.021Z,8.90
2019-03-10T00:49:23.472Z,8.90
2019-03-10T00:52:27.863Z,8.90
2019-03-10T00:54:59.103Z,8.80
2019-03-10T00:57:30.418Z,8.80
2019-03-10T01:00:01.743Z,8.80
2019-03-10T01:02:32.961Z,8.80
2019-03-10T01:05:04.298Z,8.70
2019-03-10T01:07:35.644Z,8.70
2019-03-10T01:10:07.510Z,8.70
2019-03-10T01:12:38.763Z,8.70
2019-03-10T01:15:11.299Z,8.60
2019-03-10T01:17:43.854Z,8.60
2019-03-10T01:20:15.817Z,8.60
2019-03-10T01:22:47.185Z,8.50
2019-03-10T01:25:18.515Z,8.60
2019-03-10T01:27:50.566Z,8.60
2019-03-10T01:30:21.886Z,8.50
2019-03-10T01:33:47.074Z,8.70
2019-03-10T01:36:16.199Z,8.70
2019-03-10T01:38:47.704Z,8.60
2019-03-10T01:41:18.972Z,8.60
2019-03-10T01:43:50.133Z,8.60
2019-03-10T01:46:21.678Z,8.50
2019-03-10T01:48:52.830Z,8.40
2019-03-10T01:51:28.362Z,8.40
2019-03-10T01:53:59.902Z,8.40
2019-03-10T01:56:31.384Z,8.50
2019-03-10T01:59:02.604Z,8.50
2019-03-10T02:01:33.813Z,8.50
2019-03-10T02:04:05.011Z,8.70
2019-03-10T02:06:36.104Z,8.60
2019-03-10T02:09:07.549Z,8.60
2019-03-10T02:11:38.856Z,8.60
2019-03-10T02:14:10.517Z,8.60
2019-03-10T02:16:41.742Z,8.60
2019-03-10T02:19:13.214Z,8.60
2019-03-10T02:21:44.359Z,8.70
2019-03-10T02:24:23.486Z,8.70
2019-03-10T02:26:48.651Z,8.70
2019-03-10T02:29:19.764Z,8.70
2019-03-10T02:31:50.967Z,8.70
2019-03-10T02:34:22.247Z,8.70
2019-03-10T02:36:54.923Z,8.80
2019-03-10T02:39:27.350Z,8.80
2019-03-10T02:41:58.569Z,8.80
2019-03-10T02:44:30.187Z,8.70
2019-03-10T02:47:01.438Z,8.80
2019-03-10T02:49:32.531Z,8.90
2019-03-10T02:52:03.773Z,8.80
2019-03-10T02:54:34.910Z,8.70
2019-03-10T02:57:06.448Z,8.70
2019-03-10T02:59:37.914Z,8.70
2019-03-10T03:02:09.417Z,8.70
2019-03-10T03:04:40.684Z,8.70
2019-03-10T03:07:11.848Z,8.60
2019-03-10T03:09:43.042Z,8.60
2019-03-10T03:12:14.603Z,8.70
2019-03-10T03:14:45.958Z,8.60
2019-03-10T03:17:17.537Z,8.50
2019-03-10T03:19:49.070Z,8.30
2019-03-10T03:22:20.698Z,8.20
2019-03-10T03:24:51.944Z,8.20
2019-03-10T03:27:23.283Z,8.20
2019-03-10T03:29:54.435Z,8.20
2019-03-10T03:32:25.635Z,8.10
2019-03-10T03:34:57.160Z,8.10
2019-03-10T03:37:28.377Z,8.20
2019-03-10T03:40:00.579Z,8.10
2019-03-10T03:42:32.053Z,8.10
2019-03-10T03:45:03.160Z,8.00
2019-03-10T03:47:34.275Z,8.00
2019-03-10T03:50:06.328Z,8.00
2019-03-10T03:52:37.515Z,7.90
2019-03-10T03:55:08.763Z,7.90
2019-03-10T03:57:39.851Z,7.90
2019-03-10T04:00:11.444Z,7.80
2019-03-10T04:02:42.688Z,7.70
2019-03-10T04:05:14.321Z,7.60
2019-03-10T04:07:45.437Z,7.50
2019-03-10T04:10:16.677Z,7.50
2019-03-10T04:12:47.868Z,7.50
2019-03-10T04:15:19.209Z,7.50
2019-03-10T04:17:50.416Z,7.50
2019-03-10T04:20:21.518Z,7.50
2019-03-10T04:22:52.583Z,7.50
2019-03-10T04:25:24.521Z,7.50
2019-03-10T04:27:55.684Z,7.40
2019-03-10T04:30:26.999Z,7.40
2019-03-10T04:32:58.240Z,7.50
2019-03-10T04:35:29.699Z,7.50
2019-03-10T04:38:00.782Z,7.50
2019-03-10T04:40:32.617Z,7.50
2019-03-10T04:43:03.944Z,7.60
2019-03-10T04:45:35.141Z,7.70
2019-03-10T04:48:06.396Z,7.70
2019-03-10T04:50:37.590Z,7.60
2019-03-10T04:53:08.770Z,7.60
2019-03-10T04:55:57.864Z,7.50
2019-03-10T04:58:29.539Z,7.60
2019-03-10T05:01:00.864Z,7.50
2019-03-10T05:03:32.382Z,7.40
2019-03-10T05:06:03.626Z,7.30
2019-03-10T05:08:34.784Z,7.20
2019-03-10T05:11:06.264Z,7.10
2019-03-10T05:13:37.642Z,7.10
2019-03-10T05:16:08.856Z,7.10
2019-03-10T05:18:40.003Z,7.10
2019-03-10T05:21:11.298Z,7.10
2019-03-10T05:23:44.786Z,7.10
2019-03-10T05:26:17.182Z,7.10
2019-03-10T05:28:49.376Z,7.10
2019-03-10T05:31:20.663Z,7.10
2019-03-10T05:33:51.782Z,7.00
2019-03-10T05:36:22.908Z,6.90
2019-03-10T05:38:54.090Z,6.90
2019-03-10T05:41:25.533Z,6.90
2019-03-10T05:43:58.750Z,6.90
2019-03-10T05:46:29.661Z,7.00
2019-03-10T05:49:00.743Z,6.90
2019-03-10T05:51:31.916Z,7.10
2019-03-10T05:54:03.470Z,7.10
2019-03-10T05:56:34.636Z,7.20
2019-03-10T05:59:06.171Z,7.10
2019-03-10T06:01:37.638Z,7.10
2019-03-10T06:04:09.183Z,7.00
2019-03-10T06:06:40.786Z,6.90
2019-03-10T06:09:11.843Z,6.90
2019-03-10T06:11:43.193Z,6.80
2019-03-10T06:14:14.443Z,6.80
2019-03-10T06:16:45.580Z,6.80
2019-03-10T06:19:16.703Z,6.80
2019-03-10T06:21:47.937Z,6.90
2019-03-10T06:24:19.092Z,6.90
2019-03-10T06:26:51.089Z,6.90
2019-03-10T06:29:22.219Z,6.90
2019-03-10T06:31:53.408Z,6.90
2019-03-10T06:34:24.909Z,6.90
2019-03-10T06:36:56.119Z,6.90
2019-03-10T06:39:27.479Z,7.00
2019-03-10T06:41:58.683Z,7.00
2019-03-10T06:44:29.797Z,7.20
2019-03-10T06:47:00.999Z,7.20
2019-03-10T06:49:32.854Z,7.30
2019-03-10T06:52:04.113Z,7.40
2019-03-10T06:54:35.527Z,7.40
2019-03-10T06:57:07.082Z,7.40
2019-03-10T06:59:38.181Z,7.40
2019-03-10T07:02:09.348Z,7.40
2019-03-10T07:04:40.854Z,7.50
2019-03-10T07:07:12.316Z,7.60
2019-03-10T07:09:43.816Z,7.60
2019-03-10T07:12:15.260Z,7.70
2019-03-10T07:14:46.665Z,7.80
2019-03-10T07:17:17.798Z,7.90
2019-03-10T07:19:49.112Z,8.00
2019-03-10T07:22:20.368Z,8.00
2019-03-10T07:24:51.802Z,8.00
2019-03-10T07:27:24.719Z,8.20
2019-03-10T07:30:02.813Z,8.30
2019-03-10T07:32:43.501Z,8.40
2019-03-10T07:35:35.339Z,8.50
2019-03-10T07:38:34.231Z,8.60
2019-03-10T07:41:24.300Z,8.70
2019-03-10T07:44:10.559Z,8.80
2019-03-10T07:47:03.688Z,9.00
2019-03-10T07:49:40.367Z,9.20
2019-03-10T07:52:45.527Z,9.40
2019-03-10T07:55:26.940Z,9.70
2019-03-10T07:58:11.425Z,10.10
2019-03-10T08:01:11.996Z,10.70
2019-03-10T08:04:08.241Z,11.60
2019-03-10T08:06:46.329Z,12.80
2019-03-10T08:09:39.135Z,13.70
2019-03-10T08:12:31.937Z,15.00
2019-03-10T08:15:15.578Z,15.20
2019-03-10T08:17:52.551Z,14.90
2019-03-10T08:20:28.917Z,14.10
2019-03-10T08:23:07.396Z,13.60
2019-03-10T08:25:56.443Z,13.10
2019-03-10T08:28:55.964Z,12.70
2019-03-10T08:31:49.247Z,12.60
2019-03-10T08:34:48.717Z,12.50
2019-03-10T08:37:38.939Z,12.50
2019-03-10T08:40:25.647Z,12.70
2019-03-10T08:43:14.623Z,12.90
2019-03-10T08:45:52.848Z,12.90
2019-03-10T08:48:45.942Z,12.70
2019-03-10T08:51:35.956Z,12.70
2019-03-10T08:54:29.054Z,12.50
2019-03-10T08:57:15.033Z,12.50
2019-03-10T09:00:08.965Z,12.50
2019-03-10T09:03:11.116Z,12.60
2019-03-10T09:05:50.167Z,12.80
2019-03-10T09:08:43.312Z,13.20
2019-03-10T09:11:24.771Z,13.30
2019-03-10T09:14:01.751Z,13.30
2019-03-10T09:16:41.811Z,13.50
2019-03-10T09:19:44.196Z,13.90
2019-03-10T09:22:41.177Z,14.10
2019-03-10T09:25:20.981Z,14.20
2019-03-10T09:28:11.275Z,14.00
2019-03-10T09:30:51.638Z,13.80
2019-03-10T09:33:30.260Z,13.40
2019-03-10T09:36:15.530Z,13.20
2019-03-10T09:39:24.396Z,13.20
2019-03-10T09:42:26.921Z,13.50
2019-03-10T09:45:15.894Z,13.90
2019-03-10T09:48:05.910Z,14.60
2019-03-10T09:50:51.515Z,14.90
2019-03-10T09:53:42.928Z,14.80
2019-03-10T09:56:45.372Z,14.60
2019-03-10T09:59:32.047Z,14.70
2019-03-10T10:02:09.749Z,14.70
2019-03-10T10:05:12.001Z,14.70
2019-03-10T10:08:08.252Z,16.00
2019-03-10T10:11:10.324Z,17.70
2019-03-10T10:13:47.336Z,18.40
2019-03-10T10:16:33.335Z,17.30
2019-03-10T10:19:13.861Z,16.10
2019-03-10T10:22:09.931Z,15.00
2019-03-10T10:24:49.770Z,14.40
2019-03-10T10:27:52.601Z,13.80
2019-03-10T10:30:41.952Z,13.20
2019-03-10T10:33:17.667Z,12.70
2019-03-10T10:36:06.849Z,12.40
2019-03-10T10:38:57.010Z,12.20
2019-03-10T10:41:47.789Z,12.30
2019-03-10T10:44:26.575Z,12.40
2019-03-10T10:47:23.353Z,12.60
2019-03-10T10:50:05.620Z,12.70
2019-03-10T10:52:54.686Z,12.90
2019-03-10T10:55:35.503Z,13.00
2019-03-10T10:58:20.171Z,13.00
2019-03-10T11:01:16.751Z,13.00
2019-03-10T11:04:06.314Z,13.00
2019-03-10T11:06:55.315Z,13.30
2019-03-10T11:09:42.748Z,13.20
2019-03-10T11:12:42.240Z,13.30
2019-03-10T11:15:27.000Z,13.50
2019-03-10T11:18:14.089Z,14.00
2019-03-10T11:20:51.395Z,15.30
2019-03-10T11:23:44.691Z,16.60
2019-03-10T11:26:21.234Z,16.80
2019-03-10T11:29:13.268Z,16.60
2019-03-10T11:32:01.345Z,16.20
2019-03-10T11:34:48.410Z,16.10
2019-03-10T11:37:38.771Z,16.00
2019-03-10T11:40:38.952Z,15.70
2019-03-10T11:43:32.119Z,15.40
2019-03-10T11:46:39.334Z,15.00
2019-03-10T11:49:20.148Z,14.50
2019-03-10T11:51:58.867Z,14.10
2019-03-10T11:54:47.903Z,13.80
2019-03-10T11:57:34.299Z,13.70
2019-03-10T12:00:19.924Z,13.60
2019-03-10T12:03:09.248Z,13.40
2019-03-10T12:06:06.100Z,13.30
2019-03-10T12:08:48.054Z,13.30
2019-03-10T12:11:19.543Z,13.20
2019-03-10T12:13:51.023Z,13.10
2019-03-10T12:16:22.101Z,13.00
2019-03-10T12:18:53.310Z,13.10
2019-03-10T12:21:24.524Z,13.10
2019-03-10T12:23:55.694Z,13.10
2019-03-10T12:26:26.884Z,13.10
2019-03-10T12:28:58.136Z,13.40
2019-03-10T12:31:29.368Z,13.70
2019-03-10T12:34:00.444Z,13.60
2019-03-10T12:36:32.095Z,13.80
2019-03-10T12:39:04.763Z,13.90
2019-03-10T12:41:35.835Z,13.70
2019-03-10T12:44:07.688Z,13.50
2019-03-10T12:46:38.824Z,13.40
2019-03-10T12:49:10.139Z,13.40
2019-03-10T12:51:41.308Z,13.30
2019-03-10T12:54:12.546Z,13.40
2019-03-10T12:56:43.996Z,13.50
2019-03-10T12:59:15.421Z,13.50
2019-03-10T13:01:46.818Z,13.40
2019-03-10T13:04:19.147Z,13.40
2019-03-10T13:06:50.928Z,13.40
2019-03-10T13:09:22.443Z,13.50
2019-03-10T13:11:53.711Z,13.70
2019-03-10T13:14:24.967Z,14.00
2019-03-10T13:16:56.597Z,14.10
2019-03-10T13:19:27.947Z,14.10
2019-03-10T13:21:59.253Z,13.90
2019-03-10T13:24:30.503Z,14.00
2019-03-10T13:27:02.132Z,13.90
2019-03-10T13:29:33.427Z,14.00
2019-03-10T13:32:05.177Z,14.00
2019-03-10T13:34:36.380Z,13.60
2019-03-10T13:37:07.645Z,13.50
2019-03-10T13:39:38.970Z,13.60
2019-03-10T13:42:10.221Z,13.50
2019-03-10T13:44:41.610Z,13.40
2019-03-10T13:47:12.885Z,13.30
2019-03-10T13:49:44.274Z,13.30
2019-03-10T13:52:16.081Z,13.10
2019-03-10T13:54:47.275Z,12.90
2019-03-10T13:57:18.547Z,12.70
2019-03-10T13:59:50.269Z,12.60
2019-03-10T14:02:21.894Z,12.60
2019-03-10T14:04:53.193Z,12.60
2019-03-10T14:07:24.806Z,12.90
2019-03-10T14:09:55.984Z,13.10
2019-03-10T14:12:27.265Z,13.00
2019-03-10T14:14:58.547Z,12.90
2019-03-10T14:17:29.980Z,13.00
2019-03-10T14:20:01.271Z,12.50
2019-03-10T14:22:32.780Z,11.90
2019-03-10T14:25:04.180Z,11.50
2019-03-10T14:27:35.513Z,11.30
2019-03-10T14:30:08.024Z,11.20
2019-03-10T14:32:39.309Z,11.20
2019-03-10T14:35:10.820Z,11.10
2019-03-10T14:37:42.332Z,11.20
2019-03-10T14:40:15.094Z,11.50
2019-03-10T14:42:46.443Z,11.70
2019-03-10T14:45:18.190Z,11.70
2019-03-10T14:47:49.537Z,11.70
2019-03-10T14:50:20.898Z,11.70
2019-03-10T14:52:52.226Z,11.90
2019-03-10T14:55:23.700Z,11.90
2019-03-10T14:57:55.317Z,11.80
2019-03-10T15:00:26.978Z,11.70
2019-03-10T15:02:58.635Z,11.50
2019-03-10T15:05:30.059Z,11.30
2019-03-10T15:08:01.799Z,11.10
2019-03-10T15:10:33.048Z,11.00
2019-03-10T15:13:04.366Z,10.80
2019-03-10T15:15:35.888Z,10.90
2019-03-10T15:18:07.281Z,10.70
2019-03-10T15:20:38.636Z,10.70
2019-03-10T15:23:09.848Z,10.60
2019-03-10T15:25:41.027Z,10.70
2019-03-10T15:28:12.338Z,10.70
2019-03-10T15:30:43.681Z,10.60
2019-03-10T15:33:14.980Z,10.60
2019-03-10T15:35:46.224Z,10.70
2019-03-10T15:38:17.456Z,10.40
2019-03-10T15:40:48.799Z,10.30
2019-03-10T15:43:20.132Z,10.10
2019-03-10T15:45:51.322Z,10.10
2019-03-10T15:48:23.166Z,10.10
2019-03-10T15:50:54.725Z,10.10
2019-03-10T15:53:26.107Z,10.10
2019-03-10T15:55:57.430Z,10.00
2019-03-10T15:58:28.637Z,10.00
2019-03-10T16:00:59.961Z,9.80
2019-03-10T16:03:31.465Z,9.60
2019-03-10T16:06:02.982Z,9.50
2019-03-10T16:08:34.248Z,9.40
2019-03-10T16:11:05.570Z,9.40
2019-03-10T16:13:37.054Z,9.20
2019-03-10T16:16:08.610Z,9.00
2019-03-10T16:18:39.809Z,8.70
2019-03-10T16:21:11.187Z,8.40
2019-03-10T16:23:42.441Z,8.20
2019-03-10T16:26:13.667Z,8.00
2019-03-10T16:28:44.959Z,7.70
2019-03-10T16:31:16.213Z,7.50
2019-03-10T16:33:47.342Z,7.30
2019-03-10T16:36:18.636Z,7.30
2019-03-10T16:38:50.418Z,7.20
2019-03-10T16:41:21.653Z,7.20
2019-03-10T16:43:53.409Z,7.20
2019-03-10T16:46:24.517Z,7.30
2019-03-10T16:48:56.004Z,7.40
2019-03-10T16:51:27.218Z,7.50
2019-03-10T16:53:58.893Z,7.50
2019-03-10T16:56:33.240Z,7.40
2019-03-10T16:59:04.600Z,7.30
2019-03-10T17:01:36.020Z,7.40
2019-03-10T17:04:07.390Z,7.50
2019-03-10T17:06:38.726Z,7.50
2019-03-10T17:09:21.116Z,7.40
2019-03-10T17:11:52.481Z,7.30
2019-03-10T17:14:23.718Z,7.30
2019-03-10T17:16:55.133Z,7.30
2019-03-10T17:19:26.308Z,7.30
2019-03-10T17:21:57.839Z,7.30
2019-03-10T17:24:29.055Z,7.30
2019-03-10T17:27:00.650Z,7.00
2019-03-10T17:29:32.065Z,6.80
2019-03-10T17:32:03.355Z,6.80
2019-03-10T17:34:34.799Z,6.70
2019-03-10T17:37:06.527Z,6.80
2019-03-10T17:39:37.804Z,7.00
2019-03-10T17:42:09.149Z,7.00
2019-03-10T17:44:41.690Z,7.10
2019-03-10T17:47:13.139Z,7.20
2019-03-10T17:49:44.449Z,7.10
2019-03-10T17:52:15.868Z,7.10
2019-03-10T17:54:47.153Z,7.10
2019-03-10T17:57:18.373Z,7.10
2019-03-10T17:59:49.561Z,7.10
2019-03-10T18:02:20.799Z,7.10
2019-03-10T18:04:52.379Z,7.10
2019-03-10T18:07:24.206Z,7.20
2019-03-10T18:09:55.423Z,7.00
2019-03-10T18:12:26.660Z,7.10
2019-03-10T18:15:08.109Z,7.00
2019-03-10T18:17:31.156Z,6.80
2019-03-10T18:20:02.335Z,6.80
2019-03-10T18:22:33.487Z,6.80
2019-03-10T18:25:05.065Z,6.80
2019-03-10T18:27:36.309Z,6.70
2019-03-10T18:30:11.033Z,6.70
2019-03-10T18:32:44.455Z,6.70
2019-03-10T18:35:16.106Z,6.70
2019-03-10T18:37:47.548Z,6.80
2019-03-10T18:40:20.367Z,6.80
2019-03-10T18:42:52.020Z,6.80
2019-03-10T18:45:23.474Z,6.70
2019-03-10T18:47:55.064Z,6.80
2019-03-10T18:50:26.417Z,6.90
2019-03-10T18:52:57.712Z,6.90
2019-03-10T18:55:29.329Z,6.90
2019-03-10T18:58:00.515Z,7.00
2019-03-10T19:00:31.854Z,6.90
2019-03-10T19:03:03.851Z,7.10
2019-03-10T19:05:35.088Z,7.10
2019-03-10T19:08:06.455Z,7.10
2019-03-10T19:10:37.907Z,7.10
2019-03-10T19:13:09.256Z,7.10
2019-03-10T19:15:40.497Z,7.20
2019-03-10T19:18:11.690Z,7.20
2019-03-10T19:20:43.523Z,7.20
2019-03-10T19:23:14.767Z,7.10
2019-03-10T19:25:46.085Z,6.90
2019-03-10T19:28:17.357Z,6.90
2019-03-10T19:30:48.480Z,7.00
2019-03-10T19:33:19.671Z,6.90
2019-03-10T19:35:52.107Z,6.80
2019-03-10T19:38:23.307Z,6.80
2019-03-10T19:40:55.863Z,6.80
2019-03-10T19:43:27.121Z,6.70
2019-03-10T19:45:58.412Z,6.70
2019-03-10T19:48:30.271Z,6.60
2019-03-10T19:51:01.451Z,6.60
2019-03-10T19:53:32.697Z,6.50
2019-03-10T19:56:04.210Z,6.50
2019-03-10T19:58:35.712Z,6.30
2019-03-10T20:01:07.036Z,6.30
2019-03-10T20:03:38.248Z,6.20
2019-03-10T20:06:09.514Z,6.30
2019-03-10T20:08:40.710Z,6.20
2019-03-10T20:11:11.898Z,6.40
2019-03-10T20:13:43.020Z,6.50
2019-03-10T20:16:14.120Z,6.60
2019-03-10T20:18:45.230Z,6.60
2019-03-10T20:21:16.479Z,6.50
2019-03-10T20:23:47.736Z,6.10
2019-03-10T20:26:18.966Z,5.80
2019-03-10T20:28:50.177Z,5.60
2019-03-10T20:31:22.336Z,5.50
2019-03-10T20:33:53.579Z,5.40
2019-03-10T20:36:24.680Z,5.40
2019-03-10T20:38:55.808Z,5.30
2019-03-10T20:41:27.026Z,5.30
2019-03-10T20:43:58.181Z,5.30
2019-03-10T20:46:30.102Z,5.30
2019-03-10T20:49:02.869Z,5.20
2019-03-10T20:51:34.054Z,5.20
2019-03-10T20:54:05.704Z,5.30
2019-03-10T20:56:37.217Z,5.30
2019-03-10T20:59:08.400Z,5.10
2019-03-10T21:01:39.978Z,5.00
2019-03-10T21:04:12.262Z,4.90
2019-03-10T21:06:43.775Z,4.70
2019-03-10T21:09:14.923Z,4.80
2019-03-10T21:11:46.137Z,4.70
2019-03-10T21:14:17.696Z,4.50
2019-03-10T21:16:49.711Z,4.70
2019-03-10T21:19:21.315Z,4.50
2019-03-10T21:21:52.875Z,4.60
2019-03-10T21:24:24.153Z,4.30
2019-03-10T21:26:55.332Z,4.20
2019-03-10T21:29:26.745Z,4.20
2019-03-10T21:31:57.937Z,4.20
2019-03-10T21:34:29.286Z,4.10
2019-03-10T21:37:00.493Z,4.10
2019-03-10T21:39:34.857Z,4.40
2019-03-10T21:42:05.002Z,4.50
2019-03-10T21:44:39.785Z,4.50
2019-03-10T21:47:11.037Z,4.90
2019-03-10T21:49:42.250Z,5.10
2019-03-10T21:52:13.736Z,5.10
2019-03-10T21:54:44.945Z,5.20
2019-03-10T21:57:16.244Z,5.20
2019-03-10T21:59:47.453Z,5.20
2019-03-10T22:02:19.089Z,5.20
2019-03-10T22:04:50.188Z,5.20
2019-03-10T22:07:21.415Z,5.30
2019-03-10T22:09:52.580Z,5.40
2019-03-10T22:12:23.885Z,5.30
2019-03-10T22:14:55.257Z,5.30
2019-03-10T22:17:26.338Z,5.30
2019-03-10T22:19:57.886Z,5.20
2019-03-10T22:22:29.087Z,5.10
2019-03-10T22:25:12.201Z,5.00
2019-03-10T22:27:34.126Z,5.00
2019-03-10T22:30:05.999Z,5.20
2019-03-10T22:32:37.299Z,5.20
2019-03-10T22:35:08.658Z,5.10
2019-03-10T22:37:39.933Z,5.10
2019-03-10T22:40:12.168Z,5.20
2019-03-10T22:42:43.604Z,5.20
2019-03-10T22:45:15.528Z,5.20
2019-03-10T22:47:46.848Z,5.30
2019-03-10T22:50:18.339Z,5.20
2019-03-10T22:52:49.501Z,5.30
2019-03-10T22:55:20.769Z,5.20
2019-03-10T22:57:52.615Z,5.20
2019-03-10T23:00:26.841Z,5.20
2019-03-10T23:02:58.898Z,5.20
2019-03-10T23:05:30.132Z,5.10
2019-03-10T23:08:01.550Z,5.10
2019-03-10T23:10:32.791Z,5.10
2019-03-10T23:13:04.023Z,5.10
2019-03-10T23:15:35.345Z,5.10
2019-03-10T23:18:06.712Z,5.00
2019-03-10T23:20:37.880Z,5.00
2019-03-10T23:23:09.232Z,5.00
2019-03-10T23:25:40.698Z,5.00
2019-03-10T23:28:11.953Z,5.00
2019-03-10T23:30:43.181Z,5.00
2019-03-10T23:33:14.418Z,5.10
2019-03-10T23:35:45.632Z,5.10
2019-03-10T23:38:17.162Z,5.00
2019-03-10T23:40:48.301Z,4.90
2019-03-10T23:43:19.649Z,5.00
2019-03-10T23:45:50.820Z,5.00
2019-03-10T23:48:21.933Z,4.90
2019-03-10T23:50:53.055Z,4.90
2019-03-10T23:53:24.303Z,4.90
2019-03-10T23:55:55.387Z,5.00
2019-03-10T23:58:26.633Z,5.00
